Newburgh, Maine
Current Conditions -  °F | °C
As of 12:53 AM on Sunday 23 Nov 2014 (Local Time) from KBGR Reporting Station
Broken Clouds Broken Clouds  
Wind Chill: 29°   Ceiling: 4200
Heat Index: 35°   Visibility: 10mi
Dew Point: 15°   Wind: 7mph
Humidity: 44%   Direction: 210°SSW
Pressure: 29.91"   Gusts: NA
Location:  44.7323°N, 68.9137°W
Report Text: KBGR 230553Z 21006KT 10SM BKN042 02/M09 A2991 RMK AO2 SLP133 T00171094 10022 21011 58000
Loading
Personal Weather Stations






























Interactive Weather Map New forecast layout! Learn more

10-Day Weather Forecast

Advertisements
Track Severe Weather on mobile